createdAt,value
2022-10-15T04:30:58.445Z,17.90
2022-10-15T04:33:25.473Z,18.00
2022-10-15T04:36:06.383Z,17.90
2022-10-15T04:38:33.778Z,17.80
2022-10-15T04:41:01.861Z,17.80
2022-10-15T04:43:28.950Z,17.80
2022-10-15T04:45:57.126Z,17.70
2022-10-15T04:48:24.367Z,17.60
2022-10-15T04:50:51.569Z,17.50
2022-10-15T04:53:18.584Z,17.40
2022-10-15T04:55:45.653Z,17.40
2022-10-15T04:58:12.917Z,17.40
2022-10-15T05:00:39.893Z,17.40
2022-10-15T05:03:06.879Z,17.40
2022-10-15T05:05:33.810Z,17.50
2022-10-15T05:08:01.413Z,17.50
2022-10-15T05:10:28.456Z,17.50
2022-10-15T05:12:56.850Z,17.40
2022-10-15T05:15:25.451Z,17.40
2022-10-15T05:17:52.391Z,17.50
2022-10-15T05:20:19.313Z,17.60
2022-10-15T05:22:46.302Z,17.60
2022-10-15T05:25:13.366Z,17.50
2022-10-15T05:27:40.285Z,17.50
2022-10-15T05:30:07.518Z,17.40
2022-10-15T05:32:34.510Z,17.40
2022-10-15T05:35:01.438Z,17.50
2022-10-15T05:37:28.353Z,17.50
2022-10-15T05:39:55.299Z,17.40
2022-10-15T05:42:22.881Z,17.40
2022-10-15T05:44:49.806Z,17.40
2022-10-15T05:47:16.759Z,17.40
2022-10-15T05:49:43.775Z,17.40
2022-10-15T05:52:10.698Z,17.30
2022-10-15T05:54:37.624Z,17.30
2022-10-15T05:57:04.571Z,17.30
2022-10-15T05:59:31.492Z,17.20
2022-10-15T06:01:58.479Z,17.30
2022-10-15T06:04:25.405Z,17.40
2022-10-15T06:06:52.328Z,17.40
2022-10-15T06:09:19.276Z,17.40
2022-10-15T06:11:46.880Z,17.30
2022-10-15T06:14:13.866Z,17.30
2022-10-15T06:16:41.197Z,17.40
2022-10-15T06:19:08.226Z,17.40
2022-10-15T06:21:35.198Z,17.40
2022-10-15T06:24:04.132Z,17.40
2022-10-15T06:26:33.389Z,17.40
2022-10-15T06:29:00.438Z,17.50
2022-10-15T06:31:27.430Z,17.50
2022-10-15T06:33:54.354Z,17.60
2022-10-15T06:36:21.726Z,17.70
2022-10-15T06:38:48.646Z,17.70
2022-10-15T06:41:16.578Z,17.70
2022-10-15T06:43:44.622Z,17.80
2022-10-15T06:46:11.882Z,17.80
2022-10-15T06:48:38.800Z,17.90
2022-10-15T06:51:05.829Z,18.00
2022-10-15T06:53:33.282Z,18.20
2022-10-15T06:56:01.459Z,18.20
2022-10-15T06:58:28.400Z,18.30
2022-10-15T07:01:02.062Z,18.30
2022-10-15T07:03:29.220Z,18.30
2022-10-15T07:05:56.554Z,18.40
2022-10-15T07:08:24.870Z,18.40
2022-10-15T07:10:51.788Z,18.40
2022-10-15T07:13:18.705Z,18.50
2022-10-15T07:15:46.430Z,18.50
2022-10-15T07:18:13.462Z,18.40
2022-10-15T07:20:40.389Z,18.50
2022-10-15T07:23:07.301Z,18.50
2022-10-15T07:25:34.532Z,18.50
2022-10-15T07:28:01.473Z,18.60
2022-10-15T07:30:28.657Z,18.60
2022-10-15T07:32:56.665Z,18.60
2022-10-15T07:35:23.836Z,18.60
2022-10-15T07:37:51.008Z,18.40
2022-10-15T07:40:18.581Z,18.30
2022-10-15T07:42:51.990Z,18.30
2022-10-15T07:45:19.126Z,18.30
2022-10-15T07:47:46.149Z,18.40
2022-10-15T07:50:13.113Z,18.40
2022-10-15T07:52:40.077Z,18.40
2022-10-15T07:55:07.506Z,18.40
2022-10-15T07:57:34.706Z,18.30
2022-10-15T08:00:01.654Z,18.30
2022-10-15T08:02:28.577Z,18.30
2022-10-15T08:04:55.522Z,18.40
2022-10-15T08:07:22.463Z,18.40
2022-10-15T08:09:49.538Z,18.50
2022-10-15T08:12:16.753Z,18.20
2022-10-15T08:14:43.747Z,18.30
2022-10-15T08:17:11.013Z,18.20
2022-10-15T08:19:37.977Z,18.30
2022-10-15T08:22:05.577Z,18.40
2022-10-15T08:24:32.499Z,18.30
2022-10-15T08:26:59.475Z,18.20
2022-10-15T08:29:26.466Z,18.20
2022-10-15T08:31:53.406Z,18.20
2022-10-15T08:34:20.325Z,18.20
2022-10-15T08:36:47.367Z,18.30
2022-10-15T08:39:14.347Z,18.20
2022-10-15T08:41:45.215Z,18.30
2022-10-15T08:44:29.109Z,18.40
2022-10-15T08:47:02.620Z,18.40
2022-10-15T08:49:29.530Z,18.50
2022-10-15T08:51:58.906Z,18.60
2022-10-15T08:54:26.202Z,18.70
2022-10-15T08:57:05.823Z,18.80
2022-10-15T08:59:43.366Z,18.80
2022-10-15T09:02:22.174Z,18.80
2022-10-15T09:04:54.694Z,18.70
2022-10-15T09:07:34.974Z,18.90
2022-10-15T09:10:22.250Z,19.00
2022-10-15T09:13:09.564Z,19.10
2022-10-15T09:15:44.206Z,19.20
2022-10-15T09:18:17.071Z,19.30
2022-10-15T09:20:44.642Z,19.30
2022-10-15T09:23:13.724Z,19.30
2022-10-15T09:25:41.582Z,19.30
2022-10-15T09:28:14.541Z,19.40
2022-10-15T09:30:48.038Z,19.40
2022-10-15T09:33:26.076Z,19.40
2022-10-15T09:35:55.858Z,19.50
2022-10-15T09:38:38.502Z,19.50
2022-10-15T09:41:05.459Z,19.50
2022-10-15T09:43:35.934Z,19.50
2022-10-15T09:46:03.966Z,19.60
2022-10-15T09:48:32.398Z,19.70
2022-10-15T09:51:02.752Z,19.70
2022-10-15T09:53:32.411Z,19.70
2022-10-15T09:56:11.240Z,19.70
2022-10-15T09:59:06.016Z,19.70
2022-10-15T10:01:35.842Z,19.60
2022-10-15T10:04:13.487Z,19.70
2022-10-15T10:06:48.319Z,19.70
2022-10-15T10:09:17.827Z,19.70
2022-10-15T10:11:54.907Z,19.70
2022-10-15T10:14:23.542Z,19.70
2022-10-15T10:17:19.733Z,19.70
2022-10-15T10:20:02.561Z,19.70
2022-10-15T10:22:29.494Z,19.70
2022-10-15T10:24:56.494Z,19.70
2022-10-15T10:27:29.213Z,19.70
2022-10-15T10:29:59.078Z,19.50
2022-10-15T10:32:33.826Z,19.50
2022-10-15T10:35:02.230Z,19.50
2022-10-15T10:37:29.552Z,19.50
2022-10-15T10:39:58.334Z,19.50
2022-10-15T10:42:27.260Z,19.50
2022-10-15T10:44:54.342Z,19.50
2022-10-15T10:47:22.558Z,19.40
2022-10-15T10:49:51.043Z,19.60
2022-10-15T10:52:24.260Z,19.70
2022-10-15T10:55:11.438Z,19.70
2022-10-15T10:57:43.157Z,19.80
2022-10-15T11:00:18.570Z,19.80
2022-10-15T11:02:45.929Z,19.90
2022-10-15T11:05:12.987Z,20.00
2022-10-15T11:07:48.611Z,19.90
2022-10-15T11:10:24.438Z,19.90
2022-10-15T11:12:51.393Z,20.00
2022-10-15T11:15:47.728Z,20.00
2022-10-15T11:18:27.862Z,20.00
2022-10-15T11:21:00.692Z,20.00
2022-10-15T11:23:51.336Z,19.80
2022-10-15T11:26:51.963Z,19.70
2022-10-15T11:29:38.896Z,19.80
2022-10-15T11:32:25.671Z,19.90
2022-10-15T11:35:16.879Z,20.00
2022-10-15T11:37:47.105Z,20.00
2022-10-15T11:40:16.901Z,20.00
2022-10-15T11:42:51.927Z,20.10
2022-10-15T11:45:31.908Z,20.20
2022-10-15T11:48:08.680Z,20.20
2022-10-15T11:50:43.118Z,20.10
2022-10-15T11:53:24.737Z,20.20
2022-10-15T11:56:03.842Z,20.20
2022-10-15T11:58:33.998Z,20.30
2022-10-15T12:01:07.382Z,20.30
2022-10-15T12:03:39.097Z,20.30
2022-10-15T12:06:11.143Z,20.30
2022-10-15T12:08:39.868Z,20.30
2022-10-15T12:11:26.981Z,20.30
2022-10-15T12:14:12.587Z,20.40
2022-10-15T12:16:43.726Z,20.50
2022-10-15T12:19:25.506Z,20.50
2022-10-15T12:21:55.449Z,20.60
2022-10-15T12:24:40.868Z,20.50
2022-10-15T12:27:21.897Z,20.60
2022-10-15T12:29:50.737Z,20.60
2022-10-15T12:32:24.570Z,20.70
2022-10-15T12:34:59.213Z,20.70
2022-10-15T12:37:30.936Z,20.70
2022-10-15T12:40:03.341Z,20.70
2022-10-15T12:42:38.556Z,20.80
2022-10-15T12:45:07.609Z,20.80
2022-10-15T12:47:51.363Z,20.80
2022-10-15T12:50:18.421Z,20.80
2022-10-15T12:52:57.321Z,20.80
2022-10-15T12:55:34.315Z,20.80
2022-10-15T12:58:05.869Z,20.80
2022-10-15T13:00:37.288Z,20.80
2022-10-15T13:03:14.743Z,20.70
2022-10-15T13:05:42.490Z,20.80
2022-10-15T13:08:14.817Z,20.80
2022-10-15T13:10:52.572Z,20.80
2022-10-15T13:13:22.401Z,20.80
2022-10-15T13:16:02.364Z,20.80
2022-10-15T13:18:30.292Z,20.90
2022-10-15T13:20:57.431Z,20.80
2022-10-15T13:23:31.026Z,20.90
2022-10-15T13:26:12.666Z,20.90
2022-10-15T13:28:41.934Z,20.90
2022-10-15T13:31:29.070Z,20.90
2022-10-15T13:33:59.837Z,20.90
2022-10-15T13:36:29.510Z,20.90
2022-10-15T13:38:58.049Z,21.00
2022-10-15T13:41:29.430Z,21.00
2022-10-15T13:44:00.564Z,21.00
2022-10-15T13:46:28.396Z,21.10
2022-10-15T13:48:59.377Z,21.00
2022-10-15T13:51:38.463Z,21.10
2022-10-15T13:54:08.789Z,21.10
2022-10-15T13:56:35.865Z,21.10
2022-10-15T13:59:03.225Z,21.10
2022-10-15T14:01:30.891Z,21.10
2022-10-15T14:03:59.286Z,21.10
2022-10-15T14:06:27.553Z,21.10
2022-10-15T14:08:56.077Z,21.10
2022-10-15T14:11:23.469Z,21.10
2022-10-15T14:13:52.334Z,21.10
2022-10-15T14:16:28.453Z,21.10
2022-10-15T14:18:57.256Z,21.10
2022-10-15T14:21:32.608Z,21.10
2022-10-15T14:24:05.558Z,21.10
2022-10-15T14:26:33.713Z,21.10
2022-10-15T14:29:01.143Z,21.10
2022-10-15T14:31:48.525Z,21.10
2022-10-15T14:34:44.762Z,21.10
2022-10-15T14:37:30.657Z,21.10
2022-10-15T14:40:10.891Z,21.10
2022-10-15T14:42:39.368Z,21.10
2022-10-15T14:45:13.750Z,21.10
2022-10-15T14:47:40.922Z,21.10
2022-10-15T14:50:10.294Z,21.10
2022-10-15T14:52:37.242Z,21.10
2022-10-15T14:55:13.790Z,21.10
2022-10-15T14:57:43.349Z,21.10
2022-10-15T15:00:31.269Z,21.10
2022-10-15T15:02:59.376Z,20.80
2022-10-15T15:05:27.192Z,21.00
2022-10-15T15:07:54.481Z,21.00
2022-10-15T15:10:21.522Z,21.10
2022-10-15T15:12:54.278Z,21.00
2022-10-15T15:15:22.196Z,21.00
2022-10-15T15:17:49.821Z,21.00
2022-10-15T15:20:20.090Z,21.00
2022-10-15T15:22:51.086Z,21.00
2022-10-15T15:25:24.534Z,21.00
2022-10-15T15:27:51.491Z,20.90
2022-10-15T15:30:19.760Z,20.90
2022-10-15T15:32:46.933Z,20.90
2022-10-15T15:35:20.201Z,20.90
2022-10-15T15:37:47.129Z,20.90
2022-10-15T15:40:14.241Z,20.90
2022-10-15T15:42:41.554Z,20.90
2022-10-15T15:45:17.112Z,20.90
2022-10-15T15:47:44.266Z,20.90
2022-10-15T15:50:11.239Z,20.90
2022-10-15T15:52:39.712Z,20.90
2022-10-15T15:55:10.329Z,20.90
2022-10-15T15:57:37.288Z,20.90
2022-10-15T16:00:05.942Z,20.90
2022-10-15T16:02:33.080Z,20.90
2022-10-15T16:05:01.744Z,20.90
2022-10-15T16:07:29.600Z,20.80
2022-10-15T16:09:56.804Z,20.80
2022-10-15T16:12:23.818Z,20.70
2022-10-15T16:14:50.784Z,20.70
2022-10-15T16:17:18.081Z,20.70
2022-10-15T16:19:45.132Z,20.60
2022-10-15T16:22:13.212Z,20.70
2022-10-15T16:24:40.208Z,20.60
2022-10-15T16:27:07.419Z,20.60
2022-10-15T16:29:34.368Z,20.60
2022-10-15T16:32:01.465Z,20.60
2022-10-15T16:34:28.461Z,20.60
2022-10-15T16:36:55.385Z,20.60
2022-10-15T16:39:22.389Z,20.60
2022-10-15T16:41:49.425Z,20.50
2022-10-15T16:44:16.380Z,20.40
2022-10-15T16:46:43.528Z,20.40
2022-10-15T16:49:10.552Z,20.30
2022-10-15T16:51:39.901Z,20.40
2022-10-15T16:54:13.712Z,20.40
2022-10-15T16:56:41.118Z,20.40
2022-10-15T16:59:08.030Z,20.40
2022-10-15T17:01:35.891Z,20.30
2022-10-15T17:04:02.936Z,20.30
2022-10-15T17:06:30.621Z,20.30
2022-10-15T17:08:58.306Z,20.20
2022-10-15T17:11:35.166Z,20.20
2022-10-15T17:14:03.843Z,20.10
2022-10-15T17:16:33.021Z,20.10
2022-10-15T17:18:59.986Z,20.10
2022-10-15T17:21:27.993Z,20.10
2022-10-15T17:23:56.125Z,20.00
2022-10-15T17:26:24.311Z,20.00
2022-10-15T17:28:51.540Z,19.90
2022-10-15T17:31:19.982Z,19.90
2022-10-15T17:33:47.534Z,19.90
2022-10-15T17:36:18.730Z,19.80
2022-10-15T17:38:46.055Z,19.80
2022-10-15T17:41:20.706Z,19.70
2022-10-15T17:43:48.263Z,19.70
2022-10-15T17:46:19.589Z,19.70
2022-10-15T17:48:46.773Z,19.60
2022-10-15T17:51:15.606Z,19.60
2022-10-15T17:53:42.710Z,19.60
2022-10-15T17:56:13.985Z,19.50
2022-10-15T17:58:41.045Z,19.50
2022-10-15T18:01:12.005Z,19.50
2022-10-15T18:03:39.060Z,19.50
2022-10-15T18:06:10.009Z,19.50
2022-10-15T18:08:36.971Z,19.40
2022-10-15T18:11:04.466Z,19.40
2022-10-15T18:13:31.871Z,19.30
2022-10-15T18:15:59.197Z,19.30
2022-10-15T18:18:26.770Z,19.30
2022-10-15T18:20:53.880Z,19.30
2022-10-15T18:23:20.997Z,19.20
2022-10-15T18:25:48.055Z,19.20
2022-10-15T18:28:15.086Z,19.20
2022-10-15T18:30:42.358Z,19.10
2022-10-15T18:33:10.735Z,19.10
2022-10-15T18:35:38.502Z,19.10
2022-10-15T18:38:05.577Z,19.00
2022-10-15T18:40:40.049Z,19.00
2022-10-15T18:43:07.948Z,19.00
2022-10-15T18:45:35.827Z,19.00
2022-10-15T18:48:02.867Z,19.00
2022-10-15T18:50:30.372Z,18.90
2022-10-15T18:52:57.470Z,19.00
2022-10-15T18:55:24.426Z,18.90
2022-10-15T18:57:51.342Z,18.90
2022-10-15T19:00:18.292Z,18.90
2022-10-15T19:02:45.206Z,18.90
2022-10-15T19:05:12.173Z,18.80
2022-10-15T19:07:39.123Z,18.80
2022-10-15T19:10:06.190Z,18.70
2022-10-15T19:12:33.109Z,18.70
2022-10-15T19:15:00.033Z,18.70
2022-10-15T19:17:28.016Z,18.70
2022-10-15T19:19:54.952Z,18.60
2022-10-15T19:22:21.930Z,18.60
2022-10-15T19:24:48.854Z,18.50
2022-10-15T19:27:15.816Z,18.50
2022-10-15T19:29:42.729Z,18.50
2022-10-15T19:32:10.915Z,18.50
2022-10-15T19:34:37.834Z,18.50
2022-10-15T19:37:04.825Z,18.60
2022-10-15T19:39:33.924Z,18.60
2022-10-15T19:42:01.272Z,18.50
2022-10-15T19:44:28.911Z,18.50
2022-10-15T19:46:56.269Z,18.50
2022-10-15T19:49:23.671Z,18.40
2022-10-15T19:51:51.186Z,18.40
2022-10-15T19:54:18.263Z,18.40
2022-10-15T19:56:45.681Z,18.40
2022-10-15T19:59:12.608Z,18.40
2022-10-15T20:01:39.622Z,18.40
2022-10-15T20:04:07.183Z,18.30
2022-10-15T20:06:35.827Z,18.30
2022-10-15T20:09:03.500Z,18.30
2022-10-15T20:11:30.597Z,18.20
2022-10-15T20:14:00.699Z,18.20
2022-10-15T20:16:32.215Z,18.20
2022-10-15T20:19:00.969Z,18.10
2022-10-15T20:21:28.164Z,18.10
2022-10-15T20:23:55.556Z,18.00
2022-10-15T20:26:23.811Z,18.00
2022-10-15T20:28:51.137Z,18.00
2022-10-15T20:31:21.305Z,18.00
2022-10-15T20:33:48.425Z,18.00
2022-10-15T20:36:21.177Z,18.00
2022-10-15T20:38:50.857Z,18.00
2022-10-15T20:41:18.395Z,18.00
2022-10-15T20:43:47.022Z,17.90
2022-10-15T20:46:16.584Z,18.00
2022-10-15T20:48:44.870Z,17.90
2022-10-15T20:51:13.713Z,17.90
2022-10-15T20:53:41.566Z,17.80
2022-10-15T20:56:08.493Z,17.80
2022-10-15T20:58:35.442Z,17.70
2022-10-15T21:01:02.776Z,17.70
2022-10-15T21:03:30.831Z,17.70
2022-10-15T21:05:57.859Z,17.60
2022-10-15T21:08:25.052Z,17.70
2022-10-15T21:10:52.082Z,17.70
2022-10-15T21:13:19.120Z,17.60
2022-10-15T21:15:46.061Z,17.60
2022-10-15T21:18:13.005Z,17.60
2022-10-15T21:20:39.940Z,17.60
2022-10-15T21:23:06.992Z,17.60
2022-10-15T21:25:34.239Z,17.60
2022-10-15T21:28:01.254Z,17.60
2022-10-15T21:30:28.226Z,17.60
2022-10-15T21:32:55.241Z,17.60
2022-10-15T21:35:22.238Z,17.60
2022-10-15T21:37:49.240Z,17.60
2022-10-15T21:40:16.188Z,17.60
2022-10-15T21:42:43.250Z,17.60
2022-10-15T21:45:10.314Z,17.50
2022-10-15T21:47:37.240Z,17.50
2022-10-15T21:50:04.365Z,17.50
2022-10-15T21:52:31.315Z,17.50
2022-10-15T21:54:58.312Z,17.50
2022-10-15T21:57:25.438Z,17.50
2022-10-15T21:59:52.605Z,17.50
2022-10-15T22:04:51.400Z,17.40
2022-10-15T22:07:18.386Z,17.30
2022-10-15T22:09:45.311Z,17.30
2022-10-15T22:12:12.255Z,17.30
2022-10-15T22:14:39.185Z,17.20
2022-10-15T22:17:06.117Z,17.20
2022-10-15T22:19:33.048Z,17.10
2022-10-15T22:22:00.010Z,17.10
2022-10-15T22:24:26.984Z,17.20
2022-10-15T22:26:53.972Z,17.20
2022-10-15T22:29:23.213Z,17.20
2022-10-15T22:31:50.293Z,17.20
2022-10-15T22:34:17.715Z,17.20
2022-10-15T22:36:44.882Z,17.10
2022-10-15T22:39:13.163Z,17.00
2022-10-15T22:41:41.381Z,17.10
2022-10-15T22:44:09.510Z,17.10
2022-10-15T22:46:37.476Z,17.10
2022-10-15T22:49:05.089Z,17.20
2022-10-15T22:51:32.446Z,17.20
2022-10-15T22:53:59.952Z,17.10
2022-10-15T22:56:27.480Z,17.10
2022-10-15T22:58:58.052Z,17.00
2022-10-15T23:01:26.152Z,17.00
2022-10-15T23:03:54.574Z,17.10
2022-10-15T23:06:22.111Z,17.10
2022-10-15T23:08:49.942Z,17.10
2022-10-15T23:11:21.290Z,17.00
2022-10-15T23:13:51.895Z,17.00
2022-10-15T23:16:20.083Z,17.00
2022-10-15T23:18:48.213Z,16.90
2022-10-15T23:21:19.200Z,16.90
2022-10-15T23:23:46.407Z,16.90
2022-10-15T23:26:14.224Z,16.80
2022-10-15T23:28:41.875Z,16.70
